createdAt,value
2022-10-02T00:01:12.948Z,3.70
2022-10-02T00:03:42.670Z,3.50
2022-10-02T00:06:18.885Z,3.90
2022-10-02T00:08:46.325Z,4.07
2022-10-02T00:11:19.712Z,3.93
2022-10-02T00:13:55.661Z,3.90
2022-10-02T00:16:36.331Z,3.87
2022-10-02T00:19:04.022Z,4.20
2022-10-02T00:21:46.008Z,4.23
2022-10-02T00:24:16.638Z,4.20
2022-10-02T00:26:56.150Z,4.90
2022-10-02T00:29:28.971Z,4.33
2022-10-02T00:32:07.919Z,4.37
2022-10-02T00:34:40.590Z,4.43
2022-10-02T00:37:20.911Z,4.77
2022-10-02T00:40:25.074Z,4.47
2022-10-02T00:43:01.769Z,4.07
2022-10-02T00:45:34.125Z,4.67
2022-10-02T00:48:31.884Z,4.47
2022-10-02T00:51:09.427Z,4.60
2022-10-02T00:53:46.212Z,4.33
2022-10-02T00:56:48.060Z,4.30
2022-10-02T00:59:51.350Z,4.73
2022-10-02T01:02:24.101Z,3.77
2022-10-02T01:04:50.650Z,4.63
2022-10-02T01:07:17.243Z,4.50
2022-10-02T01:09:44.548Z,4.23
2022-10-02T01:12:11.720Z,4.13
2022-10-02T01:14:40.350Z,4.27
2022-10-02T01:17:38.429Z,4.43
2022-10-02T01:20:06.098Z,4.47
2022-10-02T01:22:51.112Z,4.53
2022-10-02T01:25:17.698Z,3.87
2022-10-02T01:27:44.314Z,4.70
2022-10-02T01:30:18.149Z,5.27
2022-10-02T01:32:50.009Z,4.73
2022-10-02T01:35:17.232Z,4.50
2022-10-02T01:37:44.651Z,5.10
2022-10-02T01:40:23.981Z,4.80
2022-10-02T01:42:50.659Z,5.00
2022-10-02T01:45:17.339Z,5.83
2022-10-02T01:47:51.913Z,5.03
2022-10-02T01:50:35.723Z,5.17
2022-10-02T01:53:16.138Z,5.20
2022-10-02T01:55:57.957Z,5.17
2022-10-02T01:58:39.496Z,5.47
2022-10-02T02:01:24.528Z,4.83
2022-10-02T02:04:14.066Z,5.07
2022-10-02T02:06:52.694Z,4.93
2022-10-02T02:09:28.949Z,6.17
2022-10-02T02:12:19.681Z,5.17
2022-10-02T02:15:00.147Z,5.83
2022-10-02T02:17:48.695Z,5.13
2022-10-02T02:20:38.191Z,6.20
2022-10-02T02:23:07.626Z,5.40
2022-10-02T02:25:38.277Z,5.57
2022-10-02T02:28:08.252Z,5.97
2022-10-02T02:30:36.877Z,4.73
2022-10-02T02:33:12.426Z,5.37
2022-10-02T02:35:44.989Z,6.10
2022-10-02T02:38:27.987Z,5.97
2022-10-02T02:40:57.619Z,5.43
2022-10-02T02:43:28.572Z,5.63
2022-10-02T02:45:57.566Z,5.43
2022-10-02T02:48:34.631Z,5.80
2022-10-02T02:51:03.991Z,5.70
2022-10-02T02:53:33.372Z,5.07
2022-10-02T02:56:01.311Z,5.00
2022-10-02T02:58:35.121Z,5.17
2022-10-02T03:01:01.696Z,5.43
2022-10-02T03:03:28.242Z,6.13
2022-10-02T03:06:17.430Z,5.57
2022-10-02T03:08:44.850Z,5.90
2022-10-02T03:11:23.549Z,6.07
2022-10-02T03:14:11.029Z,5.93
2022-10-02T03:17:15.318Z,7.10
2022-10-02T03:19:52.897Z,6.63
2022-10-02T03:22:35.548Z,6.17
2022-10-02T03:25:21.445Z,5.53
2022-10-02T03:27:59.014Z,6.27
2022-10-02T03:30:26.243Z,5.90
2022-10-02T03:32:53.657Z,5.70
2022-10-02T03:35:21.422Z,5.43
2022-10-02T03:37:50.766Z,5.30
2022-10-02T03:40:17.295Z,6.20
2022-10-02T03:42:43.823Z,6.43
2022-10-02T03:45:10.487Z,5.70
2022-10-02T03:47:37.029Z,5.93
2022-10-02T03:50:03.928Z,6.30
2022-10-02T03:52:31.765Z,5.93
2022-10-02T03:55:03.268Z,5.53
2022-10-02T03:57:30.731Z,5.70
2022-10-02T04:00:08.966Z,5.73
2022-10-02T04:03:04.990Z,5.57
2022-10-02T04:05:55.447Z,5.60
2022-10-02T04:08:29.188Z,6.27
2022-10-02T04:11:14.367Z,6.47
2022-10-02T04:13:49.685Z,6.03
2022-10-02T04:16:18.896Z,6.40
2022-10-02T04:18:58.981Z,5.83
2022-10-02T04:21:42.603Z,6.70
2022-10-02T04:24:21.691Z,5.97
2022-10-02T04:27:00.412Z,6.13
2022-10-02T04:29:31.818Z,6.47
2022-10-02T04:32:12.861Z,6.47
2022-10-02T04:34:39.903Z,6.13
2022-10-02T04:37:37.028Z,6.37
2022-10-02T04:40:22.219Z,6.17
2022-10-02T04:43:00.138Z,6.40
2022-10-02T04:45:33.661Z,6.80
2022-10-02T04:48:29.356Z,5.70
2022-10-02T04:51:17.838Z,5.47
2022-10-02T04:53:50.359Z,6.37
2022-10-02T04:56:26.175Z,5.20
2022-10-02T04:59:11.239Z,5.50
2022-10-02T05:01:53.878Z,5.13
2022-10-02T05:04:29.430Z,6.07
2022-10-02T05:07:14.710Z,5.33
2022-10-02T05:10:19.787Z,5.50
2022-10-02T05:13:04.377Z,5.27
2022-10-02T05:16:07.547Z,4.77
2022-10-02T05:19:11.435Z,4.47
2022-10-02T05:21:50.613Z,4.13
2022-10-02T05:24:30.527Z,4.67
2022-10-02T05:27:30.782Z,4.73
2022-10-02T05:30:13.706Z,4.00
2022-10-02T05:33:11.456Z,4.37
2022-10-02T05:35:48.293Z,3.30
2022-10-02T05:38:39.872Z,3.93
2022-10-02T05:41:16.994Z,4.10
2022-10-02T05:43:49.733Z,3.97
2022-10-02T05:46:27.339Z,4.27
2022-10-02T05:49:00.778Z,4.13
2022-10-02T05:51:50.628Z,4.23
2022-10-02T05:54:22.690Z,4.33
2022-10-02T05:56:56.794Z,3.97
2022-10-02T05:59:36.057Z,3.40
2022-10-02T06:02:08.588Z,4.00
2022-10-02T06:04:38.341Z,4.13
2022-10-02T06:07:08.937Z,3.83
2022-10-02T06:09:36.200Z,3.43
2022-10-02T06:12:17.969Z,3.97
2022-10-02T06:14:50.832Z,3.60
2022-10-02T06:17:26.356Z,3.07
2022-10-02T06:20:28.925Z,3.67
2022-10-02T06:23:09.984Z,3.47
2022-10-02T06:25:43.658Z,3.53
2022-10-02T06:28:25.428Z,3.07
2022-10-02T06:31:01.309Z,3.07
2022-10-02T06:33:30.926Z,3.37
2022-10-02T06:36:30.491Z,3.10
2022-10-02T06:39:21.488Z,3.03
2022-10-02T06:42:14.517Z,3.63
2022-10-02T06:45:03.726Z,2.97
2022-10-02T06:47:52.025Z,3.20
2022-10-02T06:50:40.820Z,3.60
2022-10-02T06:53:17.686Z,3.87
2022-10-02T06:56:09.251Z,4.10
2022-10-02T06:58:45.885Z,4.53
2022-10-02T07:01:27.740Z,4.27
2022-10-02T07:04:07.718Z,4.93
2022-10-02T07:06:55.778Z,5.30
2022-10-02T07:09:34.399Z,5.00
2022-10-02T07:12:20.023Z,5.60
2022-10-02T07:15:01.784Z,12.80
2022-10-02T07:17:37.597Z,8.17
2022-10-02T07:20:25.576Z,8.13
2022-10-02T07:23:01.724Z,7.40
2022-10-02T07:25:53.129Z,7.33
2022-10-02T07:29:04.720Z,7.90
2022-10-02T07:32:00.646Z,10.00
2022-10-02T07:34:45.343Z,8.37
2022-10-02T07:37:20.039Z,7.57
2022-10-02T07:39:55.905Z,7.87
2022-10-02T07:42:42.001Z,7.63
2022-10-02T07:45:26.609Z,7.87
2022-10-02T07:48:02.393Z,12.97
2022-10-02T07:50:53.753Z,10.47
2022-10-02T07:53:20.296Z,7.53
2022-10-02T07:55:52.403Z,7.00
2022-10-02T07:58:29.073Z,8.30
2022-10-02T08:01:00.269Z,7.63
2022-10-02T08:03:35.729Z,8.83
2022-10-02T08:06:03.222Z,8.80
2022-10-02T08:08:38.671Z,14.60
2022-10-02T08:11:34.426Z,8.47
2022-10-02T08:14:38.144Z,8.27
2022-10-02T08:17:14.812Z,7.00
2022-10-02T08:19:45.720Z,7.67
2022-10-02T08:22:18.194Z,8.07
2022-10-02T08:24:52.267Z,8.60
2022-10-02T08:27:21.733Z,8.33
2022-10-02T08:30:03.232Z,15.77
2022-10-02T08:32:36.490Z,8.93
2022-10-02T08:35:12.107Z,7.33
2022-10-02T08:37:44.694Z,6.73
2022-10-02T08:41:05.183Z,7.67
2022-10-02T08:43:34.306Z,7.30
2022-10-02T08:46:16.964Z,6.60
2022-10-02T08:49:37.746Z,6.50
2022-10-02T08:52:16.381Z,16.07
2022-10-02T08:55:10.597Z,7.43
2022-10-02T08:58:03.000Z,7.93
2022-10-02T09:01:10.251Z,7.13
2022-10-02T09:03:36.835Z,6.57
2022-10-02T09:06:09.343Z,6.27
2022-10-02T09:09:00.599Z,6.80
2022-10-02T09:11:45.140Z,7.37
2022-10-02T09:14:34.855Z,8.20
2022-10-02T09:17:16.861Z,12.83
2022-10-02T09:20:13.515Z,7.60
2022-10-02T09:22:52.249Z,7.40
2022-10-02T09:25:31.443Z,7.57
2022-10-02T09:28:07.038Z,7.30
2022-10-02T09:31:10.642Z,7.50
2022-10-02T09:34:02.247Z,7.37
2022-10-02T09:37:04.274Z,7.80
2022-10-02T09:39:36.667Z,7.97
2022-10-02T09:42:25.169Z,8.00
2022-10-02T09:45:29.273Z,11.37
2022-10-02T09:48:34.199Z,7.93
2022-10-02T09:51:19.249Z,7.77
2022-10-02T09:54:01.364Z,7.80
2022-10-02T09:56:55.286Z,8.23
2022-10-02T09:59:49.929Z,7.60
2022-10-02T10:02:30.186Z,7.87
2022-10-02T10:05:40.412Z,8.10
2022-10-02T10:08:43.993Z,8.33
2022-10-02T10:11:42.974Z,7.07
2022-10-02T10:14:33.864Z,6.40
2022-10-02T10:17:42.351Z,7.33
2022-10-02T10:20:24.327Z,10.87
2022-10-02T10:23:09.231Z,10.70
2022-10-02T10:25:44.957Z,8.43
2022-10-02T10:28:20.382Z,8.37
2022-10-02T10:31:14.230Z,7.43
2022-10-02T10:33:58.070Z,6.70
2022-10-02T10:36:49.489Z,7.00
2022-10-02T10:39:58.365Z,7.10
2022-10-02T10:42:50.000Z,6.57
2022-10-02T10:45:36.635Z,7.67
2022-10-02T10:48:31.239Z,7.83
2022-10-02T10:51:16.451Z,7.90
2022-10-02T10:54:08.707Z,8.17
2022-10-02T10:56:44.545Z,8.20
2022-10-02T10:59:29.260Z,4.80
2022-10-02T11:02:20.860Z,4.67
2022-10-02T11:04:53.392Z,4.50
2022-10-02T11:07:41.988Z,4.23
2022-10-02T11:10:40.797Z,4.40
2022-10-02T11:13:42.620Z,3.73
2022-10-02T11:16:35.474Z,3.57
2022-10-02T11:19:10.942Z,3.70
2022-10-02T11:22:25.076Z,4.17
2022-10-02T11:25:13.535Z,5.00
2022-10-02T11:28:18.775Z,3.60
2022-10-02T11:31:04.231Z,3.83
2022-10-02T11:34:00.556Z,4.33
2022-10-02T11:36:46.648Z,3.33
2022-10-02T11:39:13.372Z,4.00
2022-10-02T11:42:05.824Z,3.43
2022-10-02T11:44:49.255Z,3.70
2022-10-02T11:47:38.427Z,3.53
2022-10-02T11:50:30.859Z,8.20
2022-10-02T11:53:09.278Z,3.10
2022-10-02T11:55:49.450Z,3.00
2022-10-02T11:58:45.308Z,3.20
2022-10-02T12:01:24.474Z,4.03
2022-10-02T12:04:18.761Z,2.87
2022-10-02T12:06:48.216Z,3.30
2022-10-02T12:09:36.142Z,21.70
2022-10-02T12:12:02.525Z,4.60
2022-10-02T12:14:32.050Z,3.57
2022-10-02T12:17:46.531Z,9.57
2022-10-02T12:21:09.877Z,2.67
2022-10-02T12:24:08.986Z,2.57
2022-10-02T12:26:59.309Z,2.50
2022-10-02T12:29:44.686Z,3.00
2022-10-02T12:32:38.877Z,3.27
2022-10-02T12:35:44.053Z,3.43
2022-10-02T12:38:23.326Z,2.73
2022-10-02T12:41:17.564Z,3.10
2022-10-02T12:44:02.316Z,3.07
2022-10-02T12:46:47.750Z,3.20
2022-10-02T12:49:25.347Z,2.90
2022-10-02T12:51:57.701Z,3.10
2022-10-02T12:54:47.115Z,2.97
2022-10-02T12:57:53.646Z,3.03
2022-10-02T13:00:25.113Z,2.83
2022-10-02T13:03:05.799Z,2.97
2022-10-02T13:06:10.787Z,3.37
2022-10-02T13:08:43.966Z,3.50
2022-10-02T13:11:22.740Z,3.67
2022-10-02T13:13:49.431Z,3.30
2022-10-02T13:16:34.919Z,3.13
2022-10-02T13:19:12.198Z,2.60
2022-10-02T13:22:02.213Z,3.23
2022-10-02T13:24:31.727Z,2.97
2022-10-02T13:27:26.336Z,2.53
2022-10-02T13:29:58.789Z,2.30
2022-10-02T13:32:31.999Z,3.43
2022-10-02T13:35:29.644Z,3.70
2022-10-02T13:38:41.664Z,3.87
2022-10-02T13:41:39.055Z,2.43
2022-10-02T13:44:14.680Z,2.70
2022-10-02T13:46:59.807Z,2.80
2022-10-02T13:49:58.964Z,3.10
2022-10-02T13:52:50.311Z,3.53
2022-10-02T13:55:22.772Z,3.30
2022-10-02T13:58:11.180Z,2.90
2022-10-02T14:00:37.638Z,2.53
2022-10-02T14:03:09.878Z,2.30
2022-10-02T14:05:57.027Z,2.60
2022-10-02T14:08:52.337Z,2.87
2022-10-02T14:11:38.277Z,2.83
2022-10-02T14:14:36.469Z,2.60
2022-10-02T14:17:21.735Z,2.40
2022-10-02T14:20:15.242Z,2.20
2022-10-02T14:22:50.888Z,2.53
2022-10-02T14:25:56.652Z,2.23
2022-10-02T14:28:51.953Z,2.73
2022-10-02T14:31:37.411Z,2.83
2022-10-02T14:34:04.077Z,2.97
2022-10-02T14:36:52.300Z,2.87
2022-10-02T14:39:24.907Z,2.60
2022-10-02T14:41:57.473Z,2.60
2022-10-02T14:44:46.066Z,2.83
2022-10-02T14:47:24.674Z,3.00
2022-10-02T14:49:58.280Z,3.57
2022-10-02T14:52:31.198Z,2.97
2022-10-02T14:55:25.828Z,3.00
2022-10-02T14:58:17.407Z,11.67
2022-10-02T15:00:47.086Z,4.07
2022-10-02T15:03:38.503Z,3.53
2022-10-02T15:06:30.383Z,2.87
2022-10-02T15:09:05.442Z,3.10
2022-10-02T15:11:35.871Z,2.93
2022-10-02T15:14:17.614Z,3.17
2022-10-02T15:17:48.196Z,2.70
2022-10-02T15:20:42.203Z,13.43
2022-10-02T15:23:13.816Z,4.63
2022-10-02T15:25:43.368Z,3.90
2022-10-02T15:28:44.117Z,2.83
2022-10-02T15:31:21.476Z,3.27
2022-10-02T15:34:09.676Z,3.17
2022-10-02T15:37:12.790Z,2.87
2022-10-02T15:39:42.194Z,2.83
2022-10-02T15:42:10.060Z,2.50
2022-10-02T15:44:45.555Z,2.93
2022-10-02T15:47:32.145Z,2.63
2022-10-02T15:50:27.770Z,2.63
2022-10-02T15:53:05.526Z,3.00
2022-10-02T15:55:31.953Z,2.40
2022-10-02T15:58:36.002Z,3.53
2022-10-02T16:01:33.475Z,2.30
2022-10-02T16:04:07.973Z,2.43
2022-10-02T16:07:10.496Z,3.00
2022-10-02T16:09:50.092Z,2.60
2022-10-02T16:12:22.588Z,2.63
2022-10-02T16:14:59.332Z,3.23
2022-10-02T16:17:33.770Z,3.03
2022-10-02T16:20:02.997Z,2.70
2022-10-02T16:23:00.425Z,3.37
2022-10-02T16:25:48.272Z,3.17
2022-10-02T16:28:21.793Z,3.00
2022-10-02T16:30:48.268Z,3.70
2022-10-02T16:33:43.413Z,3.40
2022-10-02T16:36:38.129Z,2.77
2022-10-02T16:39:14.578Z,3.70
2022-10-02T16:41:58.478Z,3.67
2022-10-02T16:44:55.767Z,4.07
2022-10-02T16:47:53.299Z,4.10
2022-10-02T16:50:25.079Z,3.50
2022-10-02T16:53:12.974Z,3.60
2022-10-02T16:55:45.460Z,4.07
2022-10-02T16:58:35.313Z,3.80
2022-10-02T17:01:23.726Z,3.20
2022-10-02T17:04:21.376Z,3.60
2022-10-02T17:07:18.074Z,2.53
2022-10-02T17:09:48.626Z,2.33
2022-10-02T17:12:30.478Z,2.60
2022-10-02T17:15:05.380Z,3.07
2022-10-02T17:17:53.395Z,2.47
2022-10-02T17:20:57.187Z,2.20
2022-10-02T17:23:44.028Z,2.70
2022-10-02T17:26:44.078Z,2.37
2022-10-02T17:29:13.408Z,2.57
2022-10-02T17:31:58.675Z,2.23
2022-10-02T17:34:33.112Z,2.83
2022-10-02T17:37:08.965Z,2.70
2022-10-02T17:40:05.492Z,3.03
2022-10-02T17:42:34.989Z,2.83
2022-10-02T17:45:01.441Z,3.07
2022-10-02T17:47:51.823Z,3.30
2022-10-02T17:50:27.522Z,3.07
2022-10-02T17:53:24.231Z,5.50
2022-10-02T17:56:27.681Z,5.23
2022-10-02T17:59:17.208Z,5.00
2022-10-02T18:02:00.977Z,4.50
2022-10-02T18:04:27.544Z,4.40
2022-10-02T18:07:16.845Z,3.87
2022-10-02T18:10:31.600Z,3.83
2022-10-02T18:13:43.038Z,4.40
2022-10-02T18:16:29.632Z,3.73
2022-10-02T18:19:02.282Z,3.87
2022-10-02T18:21:35.037Z,4.03
2022-10-02T18:24:04.920Z,3.63
2022-10-02T18:27:08.783Z,3.80
2022-10-02T18:30:10.646Z,3.77
2022-10-02T18:33:07.000Z,4.00
2022-10-02T18:36:10.869Z,4.40
2022-10-02T18:38:55.931Z,4.03
2022-10-02T18:41:41.185Z,3.80
2022-10-02T18:44:20.947Z,3.63
2022-10-02T18:47:37.198Z,3.97
2022-10-02T18:50:31.268Z,3.67
2022-10-02T18:53:35.587Z,4.10
2022-10-02T18:56:10.036Z,4.00
2022-10-02T18:58:48.998Z,3.80
2022-10-02T19:01:15.721Z,3.73
2022-10-02T19:04:11.261Z,3.90
2022-10-02T19:07:03.026Z,4.60
2022-10-02T19:09:30.846Z,4.63
2022-10-02T19:12:01.345Z,4.43
2022-10-02T19:14:33.624Z,3.80
2022-10-02T19:17:10.949Z,3.63
2022-10-02T19:19:39.915Z,3.77
2022-10-02T19:22:25.838Z,4.13
2022-10-02T19:24:56.660Z,3.50
2022-10-02T19:27:32.869Z,4.10
2022-10-02T19:30:23.454Z,4.37
2022-10-02T19:32:51.636Z,4.37
2022-10-02T19:35:20.954Z,3.80
2022-10-02T19:37:51.377Z,4.33
2022-10-02T19:40:25.430Z,4.53
2022-10-02T19:43:08.601Z,4.50
2022-10-02T19:45:36.086Z,4.27
2022-10-02T19:48:08.248Z,4.83
2022-10-02T19:50:44.440Z,4.30
2022-10-02T19:53:26.908Z,4.10
2022-10-02T19:55:56.393Z,4.20
2022-10-02T19:58:49.969Z,3.80
2022-10-02T20:01:21.442Z,3.90
2022-10-02T20:03:51.843Z,4.40
2022-10-02T20:06:21.167Z,3.77
2022-10-02T20:09:22.826Z,3.77
2022-10-02T20:11:59.679Z,3.67
2022-10-02T20:14:31.143Z,4.07
2022-10-02T20:17:09.797Z,3.80
2022-10-02T20:19:43.459Z,3.40
2022-10-02T20:22:31.897Z,3.70
2022-10-02T20:25:06.590Z,3.90
2022-10-02T20:27:44.306Z,4.10
2022-10-02T20:30:19.668Z,4.40
2022-10-02T20:32:54.318Z,3.57
2022-10-02T20:35:25.608Z,3.93
2022-10-02T20:37:54.635Z,4.10
2022-10-02T20:40:26.510Z,4.03
2022-10-02T20:43:02.528Z,3.17
2022-10-02T20:45:54.997Z,3.97
2022-10-02T20:49:06.486Z,3.80
2022-10-02T20:51:52.766Z,3.67
2022-10-02T20:54:23.931Z,4.00
2022-10-02T20:57:19.057Z,3.70
2022-10-02T20:59:57.914Z,4.03
2022-10-02T21:02:45.058Z,3.30
2022-10-02T21:05:31.187Z,3.67
2022-10-02T21:08:13.006Z,3.40
2022-10-02T21:11:01.181Z,3.40
2022-10-02T21:13:58.900Z,3.83
2022-10-02T21:16:57.669Z,3.27
2022-10-02T21:19:48.707Z,3.60
2022-10-02T21:22:33.959Z,3.57
2022-10-02T21:25:42.552Z,3.30
2022-10-02T21:28:31.165Z,3.33
2022-10-02T21:31:22.507Z,3.40
2022-10-02T21:33:59.691Z,3.27
2022-10-02T21:36:26.149Z,3.30
2022-10-02T21:39:23.158Z,3.20
2022-10-02T21:42:08.653Z,3.00
2022-10-02T21:44:48.083Z,3.13
2022-10-02T21:47:37.597Z,3.27
2022-10-02T21:50:14.250Z,3.13
2022-10-02T21:53:22.374Z,3.10
2022-10-02T21:59:35.590Z,2.53
2022-10-02T22:02:20.669Z,3.10
2022-10-02T22:05:26.238Z,3.07
2022-10-02T22:08:21.265Z,2.53
2022-10-02T22:11:12.225Z,3.40
2022-10-02T22:13:40.818Z,2.93
2022-10-02T22:16:13.717Z,3.10
2022-10-02T22:18:55.522Z,3.10
2022-10-02T22:21:35.124Z,3.50
2022-10-02T22:24:10.646Z,3.60
2022-10-02T22:27:11.473Z,3.67
2022-10-02T22:29:54.904Z,3.83
2022-10-02T22:32:49.368Z,3.70
2022-10-02T22:35:33.889Z,3.80
2022-10-02T22:38:11.575Z,4.13
2022-10-02T22:41:02.395Z,3.60
2022-10-02T22:43:58.283Z,3.87
2022-10-02T22:46:31.042Z,4.47
2022-10-02T22:49:03.413Z,4.10
2022-10-02T22:52:15.429Z,3.63
2022-10-02T22:54:58.220Z,4.33
2022-10-02T22:57:45.512Z,3.87
2022-10-02T23:00:24.338Z,4.53
2022-10-02T23:03:03.985Z,3.57
2022-10-02T23:05:41.235Z,3.90
2022-10-02T23:08:13.841Z,4.40
2022-10-02T23:10:55.332Z,4.07
2022-10-02T23:13:28.556Z,4.20
2022-10-02T23:16:05.127Z,3.93
2022-10-02T23:18:50.033Z,4.03
2022-10-02T23:21:22.157Z,4.23
2022-10-02T23:23:55.946Z,4.50
2022-10-02T23:26:31.832Z,4.17
2022-10-02T23:29:26.041Z,4.17
2022-10-02T23:31:55.775Z,4.10
2022-10-02T23:34:41.393Z,4.50
2022-10-02T23:37:19.488Z,4.83
2022-10-02T23:39:54.316Z,4.80
2022-10-02T23:42:28.032Z,3.97
2022-10-02T23:45:24.093Z,4.00
2022-10-02T23:48:04.653Z,4.57
2022-10-02T23:50:33.978Z,4.57
2022-10-02T23:53:27.988Z,5.00
2022-10-02T23:56:12.121Z,4.50
2022-10-02T23:58:38.775Z,3.97
